sensor_id;sensor_type;location;lat;lon;timestamp;temperature;humidity
7720;DHT22;3902;49.474;8.616;2023-03-01T00:01:11;3.90;85.40
7720;DHT22;3902;49.474;8.616;2023-03-01T00:03:37;3.90;85.20
7720;DHT22;3902;49.474;8.616;2023-03-01T00:06:03;3.90;85.50
7720;DHT22;3902;49.474;8.616;2023-03-01T00:08:30;3.90;85.50
7720;DHT22;3902;49.474;8.616;2023-03-01T00:11:23;3.80;85.70
7720;DHT22;3902;49.474;8.616;2023-03-01T00:13:51;3.80;85.90
7720;DHT22;3902;49.474;8.616;2023-03-01T00:16:20;3.80;86.00
7720;DHT22;3902;49.474;8.616;2023-03-01T00:18:45;3.80;86.20
7720;DHT22;3902;49.474;8.616;2023-03-01T00:21:11;3.80;86.40
7720;DHT22;3902;49.474;8.616;2023-03-01T00:23:37;3.70;86.20
7720;DHT22;3902;49.474;8.616;2023-03-01T00:26:07;3.70;86.40
7720;DHT22;3902;49.474;8.616;2023-03-01T00:28:33;3.70;86.80
7720;DHT22;3902;49.474;8.616;2023-03-01T00:31:11;3.70;87.00
7720;DHT22;3902;49.474;8.616;2023-03-01T00:33:37;3.70;87.20
7720;DHT22;3902;49.474;8.616;2023-03-01T00:36:03;3.70;87.20
7720;DHT22;3902;49.474;8.616;2023-03-01T00:38:29;3.70;87.40
7720;DHT22;3902;49.474;8.616;2023-03-01T00:40:55;3.70;87.40
7720;DHT22;3902;49.474;8.616;2023-03-01T00:43:21;3.60;87.50
7720;DHT22;3902;49.474;8.616;2023-03-01T00:45:46;3.60;87.60
7720;DHT22;3902;49.474;8.616;2023-03-01T00:48:12;3.60;87.60
7720;DHT22;3902;49.474;8.616;2023-03-01T00:50:37;3.60;87.80
7720;DHT22;3902;49.474;8.616;2023-03-01T00:53:03;3.60;88.20
7720;DHT22;3902;49.474;8.616;2023-03-01T00:55:30;3.60;88.40
7720;DHT22;3902;49.474;8.616;2023-03-01T00:57:55;3.50;88.10
7720;DHT22;3902;49.474;8.616;2023-03-01T01:00:21;3.60;88.20
7720;DHT22;3902;49.474;8.616;2023-03-01T01:02:47;3.60;88.60
7720;DHT22;3902;49.474;8.616;2023-03-01T01:05:13;3.60;88.90
7720;DHT22;3902;49.474;8.616;2023-03-01T01:07:38;3.60;88.80
7720;DHT22;3902;49.474;8.616;2023-03-01T01:10:05;3.60;88.40
7720;DHT22;3902;49.474;8.616;2023-03-01T01:12:31;3.60;88.90
7720;DHT22;3902;49.474;8.616;2023-03-01T01:14:57;3.60;89.00
7720;DHT22;3902;49.474;8.616;2023-03-01T01:17:23;3.60;89.10
7720;DHT22;3902;49.474;8.616;2023-03-01T01:19:48;3.60;89.40
7720;DHT22;3902;49.474;8.616;2023-03-01T01:22:14;3.70;89.40
7720;DHT22;3902;49.474;8.616;2023-03-01T01:24:39;3.70;89.70
7720;DHT22;3902;49.474;8.616;2023-03-01T01:27:05;3.70;89.80
7720;DHT22;3902;49.474;8.616;2023-03-01T01:29:32;3.70;90.00
7720;DHT22;3902;49.474;8.616;2023-03-01T01:31:58;3.70;89.60
7720;DHT22;3902;49.474;8.616;2023-03-01T01:34:23;3.70;89.50
7720;DHT22;3902;49.474;8.616;2023-03-01T01:36:51;3.70;89.70
7720;DHT22;3902;49.474;8.616;2023-03-01T01:39:18;3.70;89.20
7720;DHT22;3902;49.474;8.616;2023-03-01T01:41:43;3.60;89.80
7720;DHT22;3902;49.474;8.616;2023-03-01T01:44:18;3.70;90.00
7720;DHT22;3902;49.474;8.616;2023-03-01T01:46:57;3.70;90.10
7720;DHT22;3902;49.474;8.616;2023-03-01T01:49:42;3.70;90.20
7720;DHT22;3902;49.474;8.616;2023-03-01T01:52:16;3.80;90.10
7720;DHT22;3902;49.474;8.616;2023-03-01T01:55:02;3.80;90.20
7720;DHT22;3902;49.474;8.616;2023-03-01T01:57:44;3.70;90.00
7720;DHT22;3902;49.474;8.616;2023-03-01T02:00:14;3.70;89.80
7720;DHT22;3902;49.474;8.616;2023-03-01T02:02:41;3.70;90.10
7720;DHT22;3902;49.474;8.616;2023-03-01T02:05:16;3.70;90.10
7720;DHT22;3902;49.474;8.616;2023-03-01T02:07:44;3.70;89.80
7720;DHT22;3902;49.474;8.616;2023-03-01T02:10:10;3.70;90.30
7720;DHT22;3902;49.474;8.616;2023-03-01T02:12:36;3.70;90.30
7720;DHT22;3902;49.474;8.616;2023-03-01T02:15:04;3.70;90.40
7720;DHT22;3902;49.474;8.616;2023-03-01T02:17:30;3.60;90.30
7720;DHT22;3902;49.474;8.616;2023-03-01T02:22:35;3.60;90.60
7720;DHT22;3902;49.474;8.616;2023-03-01T02:25:12;3.60;90.50
7720;DHT22;3902;49.474;8.616;2023-03-01T02:27:53;3.60;90.70
7720;DHT22;3902;49.474;8.616;2023-03-01T02:30:21;3.50;90.70
7720;DHT22;3902;49.474;8.616;2023-03-01T02:32:47;3.60;90.70
7720;DHT22;3902;49.474;8.616;2023-03-01T02:35:15;3.60;90.80
7720;DHT22;3902;49.474;8.616;2023-03-01T02:37:42;3.50;91.10
7720;DHT22;3902;49.474;8.616;2023-03-01T02:40:11;3.50;90.90
7720;DHT22;3902;49.474;8.616;2023-03-01T02:42:51;3.50;90.80
7720;DHT22;3902;49.474;8.616;2023-03-01T02:45:17;3.50;91.10
7720;DHT22;3902;49.474;8.616;2023-03-01T02:47:42;3.50;90.90
7720;DHT22;3902;49.474;8.616;2023-03-01T02:50:22;3.50;91.00
7720;DHT22;3902;49.474;8.616;2023-03-01T02:53:11;3.50;91.00
7720;DHT22;3902;49.474;8.616;2023-03-01T02:55:38;3.50;91.00
7720;DHT22;3902;49.474;8.616;2023-03-01T02:58:04;3.50;91.00
7720;DHT22;3902;49.474;8.616;2023-03-01T03:00:34;3.50;91.10
7720;DHT22;3902;49.474;8.616;2023-03-01T03:03:01;3.50;91.10
7720;DHT22;3902;49.474;8.616;2023-03-01T03:05:28;3.40;91.30
7720;DHT22;3902;49.474;8.616;2023-03-01T03:07:55;3.40;91.30
7720;DHT22;3902;49.474;8.616;2023-03-01T03:10:28;3.40;91.30
7720;DHT22;3902;49.474;8.616;2023-03-01T03:13:05;3.40;91.40
7720;DHT22;3902;49.474;8.616;2023-03-01T03:15:32;3.30;91.50
7720;DHT22;3902;49.474;8.616;2023-03-01T03:18:03;3.30;91.50
7720;DHT22;3902;49.474;8.616;2023-03-01T03:20:29;3.30;91.60
7720;DHT22;3902;49.474;8.616;2023-03-01T03:22:56;3.30;91.60
7720;DHT22;3902;49.474;8.616;2023-03-01T03:25:25;3.30;91.70
7720;DHT22;3902;49.474;8.616;2023-03-01T03:27:52;3.30;91.70
7720;DHT22;3902;49.474;8.616;2023-03-01T03:30:31;3.20;91.90
7720;DHT22;3902;49.474;8.616;2023-03-01T03:32:58;3.20;92.00
7720;DHT22;3902;49.474;8.616;2023-03-01T03:35:26;3.20;92.20
7720;DHT22;3902;49.474;8.616;2023-03-01T03:37:54;3.10;92.10
7720;DHT22;3902;49.474;8.616;2023-03-01T03:40:48;3.10;92.40
7720;DHT22;3902;49.474;8.616;2023-03-01T03:43:19;3.10;92.10
7720;DHT22;3902;49.474;8.616;2023-03-01T03:45:46;3.10;92.00
7720;DHT22;3902;49.474;8.616;2023-03-01T03:48:12;3.20;92.20
7720;DHT22;3902;49.474;8.616;2023-03-01T03:50:39;3.10;92.10
7720;DHT22;3902;49.474;8.616;2023-03-01T03:53:10;3.10;92.30
7720;DHT22;3902;49.474;8.616;2023-03-01T03:55:36;3.10;92.30
7720;DHT22;3902;49.474;8.616;2023-03-01T03:58:05;3.10;92.40
7720;DHT22;3902;49.474;8.616;2023-03-01T04:00:35;3.10;92.30
7720;DHT22;3902;49.474;8.616;2023-03-01T04:03:01;3.10;92.10
7720;DHT22;3902;49.474;8.616;2023-03-01T04:05:27;3.00;92.20
7720;DHT22;3902;49.474;8.616;2023-03-01T04:07:53;3.00;92.10
7720;DHT22;3902;49.474;8.616;2023-03-01T04:10:27;2.80;92.20
7720;DHT22;3902;49.474;8.616;2023-03-01T04:12:53;2.90;92.60
7720;DHT22;3902;49.474;8.616;2023-03-01T04:15:22;3.00;92.70
7720;DHT22;3902;49.474;8.616;2023-03-01T04:17:50;3.00;92.60
7720;DHT22;3902;49.474;8.616;2023-03-01T04:20:19;3.00;92.50
7720;DHT22;3902;49.474;8.616;2023-03-01T04:22:51;3.00;92.50
7720;DHT22;3902;49.474;8.616;2023-03-01T04:25:17;3.00;92.70
7720;DHT22;3902;49.474;8.616;2023-03-01T04:27:43;3.00;92.90
7720;DHT22;3902;49.474;8.616;2023-03-01T04:30:09;3.00;92.90
7720;DHT22;3902;49.474;8.616;2023-03-01T04:32:35;3.00;92.60
7720;DHT22;3902;49.474;8.616;2023-03-01T04:35:00;3.00;92.90
7720;DHT22;3902;49.474;8.616;2023-03-01T04:37:26;3.00;92.80
7720;DHT22;3902;49.474;8.616;2023-03-01T04:39:52;3.00;92.90
7720;DHT22;3902;49.474;8.616;2023-03-01T04:42:18;2.90;92.80
7720;DHT22;3902;49.474;8.616;2023-03-01T04:44:44;2.90;92.90
7720;DHT22;3902;49.474;8.616;2023-03-01T04:47:10;2.90;93.00
7720;DHT22;3902;49.474;8.616;2023-03-01T04:49:36;2.90;93.00
7720;DHT22;3902;49.474;8.616;2023-03-01T04:52:02;2.80;93.20
7720;DHT22;3902;49.474;8.616;2023-03-01T04:54:28;2.80;93.20
7720;DHT22;3902;49.474;8.616;2023-03-01T04:56:54;2.80;93.40
7720;DHT22;3902;49.474;8.616;2023-03-01T04:59:20;2.80;93.40
7720;DHT22;3902;49.474;8.616;2023-03-01T05:01:51;2.70;93.40
7720;DHT22;3902;49.474;8.616;2023-03-01T05:04:16;2.70;93.60
7720;DHT22;3902;49.474;8.616;2023-03-01T05:06:42;2.70;93.70
7720;DHT22;3902;49.474;8.616;2023-03-01T05:09:08;2.70;93.80
7720;DHT22;3902;49.474;8.616;2023-03-01T05:11:33;2.70;93.80
7720;DHT22;3902;49.474;8.616;2023-03-01T05:14:10;2.70;93.90
7720;DHT22;3902;49.474;8.616;2023-03-01T05:16:36;2.70;93.80
7720;DHT22;3902;49.474;8.616;2023-03-01T05:19:03;2.70;93.80
7720;DHT22;3902;49.474;8.616;2023-03-01T05:21:37;2.70;93.70
7720;DHT22;3902;49.474;8.616;2023-03-01T05:24:23;2.70;94.00
7720;DHT22;3902;49.474;8.616;2023-03-01T05:26:49;2.70;94.00
7720;DHT22;3902;49.474;8.616;2023-03-01T05:29:15;2.60;94.10
7720;DHT22;3902;49.474;8.616;2023-03-01T05:31:40;2.60;94.30
7720;DHT22;3902;49.474;8.616;2023-03-01T05:34:06;2.60;94.30
7720;DHT22;3902;49.474;8.616;2023-03-01T05:36:31;2.70;94.30
7720;DHT22;3902;49.474;8.616;2023-03-01T05:38:57;2.70;94.30
7720;DHT22;3902;49.474;8.616;2023-03-01T05:41:22;2.70;94.20
7720;DHT22;3902;49.474;8.616;2023-03-01T05:43:48;2.70;94.30
7720;DHT22;3902;49.474;8.616;2023-03-01T05:46:13;2.70;94.30
7720;DHT22;3902;49.474;8.616;2023-03-01T05:48:40;2.70;94.40
7720;DHT22;3902;49.474;8.616;2023-03-01T05:51:06;2.70;94.50
7720;DHT22;3902;49.474;8.616;2023-03-01T05:53:31;2.70;94.40
7720;DHT22;3902;49.474;8.616;2023-03-01T05:55:57;2.70;94.30
7720;DHT22;3902;49.474;8.616;2023-03-01T05:58:22;2.70;94.30
7720;DHT22;3902;49.474;8.616;2023-03-01T06:00:49;2.80;94.30
7720;DHT22;3902;49.474;8.616;2023-03-01T06:03:16;2.80;94.50
7720;DHT22;3902;49.474;8.616;2023-03-01T06:05:43;2.70;94.50
7720;DHT22;3902;49.474;8.616;2023-03-01T06:08:10;2.70;94.40
7720;DHT22;3902;49.474;8.616;2023-03-01T06:10:36;2.70;94.60
7720;DHT22;3902;49.474;8.616;2023-03-01T06:13:01;2.80;94.60
7720;DHT22;3902;49.474;8.616;2023-03-01T06:15:27;2.70;94.60
7720;DHT22;3902;49.474;8.616;2023-03-01T06:17:54;2.80;94.60
7720;DHT22;3902;49.474;8.616;2023-03-01T06:20:23;2.80;94.60
7720;DHT22;3902;49.474;8.616;2023-03-01T06:22:49;2.80;94.60
7720;DHT22;3902;49.474;8.616;2023-03-01T06:25:18;2.80;94.80
7720;DHT22;3902;49.474;8.616;2023-03-01T06:27:45;2.80;94.70
7720;DHT22;3902;49.474;8.616;2023-03-01T06:30:13;2.80;94.80
7720;DHT22;3902;49.474;8.616;2023-03-01T06:32:39;2.80;94.70
7720;DHT22;3902;49.474;8.616;2023-03-01T06:35:13;2.80;94.90
7720;DHT22;3902;49.474;8.616;2023-03-01T06:37:39;2.80;94.80
7720;DHT22;3902;49.474;8.616;2023-03-01T06:40:06;2.80;94.70
7720;DHT22;3902;49.474;8.616;2023-03-01T06:42:34;2.80;94.60
7720;DHT22;3902;49.474;8.616;2023-03-01T06:45:00;2.90;94.70
7720;DHT22;3902;49.474;8.616;2023-03-01T06:47:25;2.90;94.80
7720;DHT22;3902;49.474;8.616;2023-03-01T06:49:51;2.90;94.70
7720;DHT22;3902;49.474;8.616;2023-03-01T06:52:16;2.90;94.60
7720;DHT22;3902;49.474;8.616;2023-03-01T06:54:42;2.90;94.70
7720;DHT22;3902;49.474;8.616;2023-03-01T06:57:07;2.90;94.60
7720;DHT22;3902;49.474;8.616;2023-03-01T06:59:33;2.90;94.50
7720;DHT22;3902;49.474;8.616;2023-03-01T07:01:58;3.00;94.70
7720;DHT22;3902;49.474;8.616;2023-03-01T07:04:24;3.00;94.60
7720;DHT22;3902;49.474;8.616;2023-03-01T07:06:49;3.00;94.50
7720;DHT22;3902;49.474;8.616;2023-03-01T07:09:23;3.10;94.70
7720;DHT22;3902;49.474;8.616;2023-03-01T07:11:49;3.10;94.70
7720;DHT22;3902;49.474;8.616;2023-03-01T07:14:15;3.10;94.70
7720;DHT22;3902;49.474;8.616;2023-03-01T07:16:41;3.20;94.80
7720;DHT22;3902;49.474;8.616;2023-03-01T07:19:06;3.20;94.80
7720;DHT22;3902;49.474;8.616;2023-03-01T07:21:32;3.20;94.40
7720;DHT22;3902;49.474;8.616;2023-03-01T07:23:57;3.30;94.60
7720;DHT22;3902;49.474;8.616;2023-03-01T07:26:23;3.30;94.50
7720;DHT22;3902;49.474;8.616;2023-03-01T07:28:48;3.30;94.50
7720;DHT22;3902;49.474;8.616;2023-03-01T07:31:14;3.30;94.50
7720;DHT22;3902;49.474;8.616;2023-03-01T07:33:40;3.40;94.70
7720;DHT22;3902;49.474;8.616;2023-03-01T07:36:06;3.40;94.40
7720;DHT22;3902;49.474;8.616;2023-03-01T07:38:32;3.40;94.40
7720;DHT22;3902;49.474;8.616;2023-03-01T07:40:59;3.40;94.50
7720;DHT22;3902;49.474;8.616;2023-03-01T07:43:25;3.50;94.40
7720;DHT22;3902;49.474;8.616;2023-03-01T07:45:51;3.50;94.40
7720;DHT22;3902;49.474;8.616;2023-03-01T07:48:17;3.50;94.10
7720;DHT22;3902;49.474;8.616;2023-03-01T07:50:42;3.50;94.00
7720;DHT22;3902;49.474;8.616;2023-03-01T07:53:09;3.50;94.10
7720;DHT22;3902;49.474;8.616;2023-03-01T07:55:34;3.60;93.90
7720;DHT22;3902;49.474;8.616;2023-03-01T07:58:00;3.60;93.80
7720;DHT22;3902;49.474;8.616;2023-03-01T08:00:26;3.60;93.60
7720;DHT22;3902;49.474;8.616;2023-03-01T08:02:51;3.60;93.80
7720;DHT22;3902;49.474;8.616;2023-03-01T08:05:17;3.70;93.90
7720;DHT22;3902;49.474;8.616;2023-03-01T08:07:42;3.70;93.80
7720;DHT22;3902;49.474;8.616;2023-03-01T08:10:08;3.80;93.80
7720;DHT22;3902;49.474;8.616;2023-03-01T08:12:34;3.80;93.80
7720;DHT22;3902;49.474;8.616;2023-03-01T08:14:59;3.90;93.80
7720;DHT22;3902;49.474;8.616;2023-03-01T08:17:25;3.90;93.60
7720;DHT22;3902;49.474;8.616;2023-03-01T08:19:50;3.90;93.40
7720;DHT22;3902;49.474;8.616;2023-03-01T08:22:16;3.90;93.30
7720;DHT22;3902;49.474;8.616;2023-03-01T08:24:41;3.90;93.40
7720;DHT22;3902;49.474;8.616;2023-03-01T08:27:07;3.90;93.50
7720;DHT22;3902;49.474;8.616;2023-03-01T08:29:33;4.00;93.30
7720;DHT22;3902;49.474;8.616;2023-03-01T08:31:59;4.00;93.10
7720;DHT22;3902;49.474;8.616;2023-03-01T08:34:25;4.10;93.50
7720;DHT22;3902;49.474;8.616;2023-03-01T08:36:51;4.10;93.50
7720;DHT22;3902;49.474;8.616;2023-03-01T08:39:19;4.20;93.60
7720;DHT22;3902;49.474;8.616;2023-03-01T08:41:45;4.20;93.30
7720;DHT22;3902;49.474;8.616;2023-03-01T08:44:12;4.20;93.50
7720;DHT22;3902;49.474;8.616;2023-03-01T08:46:40;4.30;93.50
7720;DHT22;3902;49.474;8.616;2023-03-01T08:49:08;4.30;93.40
7720;DHT22;3902;49.474;8.616;2023-03-01T08:51:34;4.40;93.20
7720;DHT22;3902;49.474;8.616;2023-03-01T08:54:07;4.40;93.40
7720;DHT22;3902;49.474;8.616;2023-03-01T08:56:35;4.50;93.40
7720;DHT22;3902;49.474;8.616;2023-03-01T08:59:00;4.50;93.40
7720;DHT22;3902;49.474;8.616;2023-03-01T09:01:26;4.50;93.00
7720;DHT22;3902;49.474;8.616;2023-03-01T09:03:51;4.60;93.20
7720;DHT22;3902;49.474;8.616;2023-03-01T09:06:17;4.60;93.20
7720;DHT22;3902;49.474;8.616;2023-03-01T09:08:45;4.70;93.10
7720;DHT22;3902;49.474;8.616;2023-03-01T09:11:13;4.80;93.00
7720;DHT22;3902;49.474;8.616;2023-03-01T09:13:39;4.80;93.00
7720;DHT22;3902;49.474;8.616;2023-03-01T09:16:06;4.90;92.60
7720;DHT22;3902;49.474;8.616;2023-03-01T09:18:33;4.90;92.70
7720;DHT22;3902;49.474;8.616;2023-03-01T09:21:11;5.00;92.90
7720;DHT22;3902;49.474;8.616;2023-03-01T09:23:45;5.10;93.00
7720;DHT22;3902;49.474;8.616;2023-03-01T09:26:16;5.20;92.70
7720;DHT22;3902;49.474;8.616;2023-03-01T09:28:44;5.20;92.60
7720;DHT22;3902;49.474;8.616;2023-03-01T09:31:11;5.30;92.60
7720;DHT22;3902;49.474;8.616;2023-03-01T09:33:41;5.40;92.30
7720;DHT22;3902;49.474;8.616;2023-03-01T09:36:10;5.40;92.00
7720;DHT22;3902;49.474;8.616;2023-03-01T09:38:36;5.50;92.20
7720;DHT22;3902;49.474;8.616;2023-03-01T09:41:02;5.50;92.00
7720;DHT22;3902;49.474;8.616;2023-03-01T09:43:47;5.60;91.30
7720;DHT22;3902;49.474;8.616;2023-03-01T09:46:21;5.70;91.70
7720;DHT22;3902;49.474;8.616;2023-03-01T09:48:53;5.80;91.70
7720;DHT22;3902;49.474;8.616;2023-03-01T09:51:27;5.90;91.50
7720;DHT22;3902;49.474;8.616;2023-03-01T09:53:54;6.00;91.40
7720;DHT22;3902;49.474;8.616;2023-03-01T09:56:37;6.00;91.60
7720;DHT22;3902;49.474;8.616;2023-03-01T10:01:46;6.20;91.50
7720;DHT22;3902;49.474;8.616;2023-03-01T10:10:00;6.50;91.20
7720;DHT22;3902;49.474;8.616;2023-03-01T10:12:35;6.60;91.00
7720;DHT22;3902;49.474;8.616;2023-03-01T10:15:15;6.60;90.80
7720;DHT22;3902;49.474;8.616;2023-03-01T10:17:50;6.70;90.70
7720;DHT22;3902;49.474;8.616;2023-03-01T10:20:26;6.80;90.90
7720;DHT22;3902;49.474;8.616;2023-03-01T10:22:52;6.90;91.10
7720;DHT22;3902;49.474;8.616;2023-03-01T10:27:53;7.10;90.40
7720;DHT22;3902;49.474;8.616;2023-03-01T10:30:38;7.20;90.60
7720;DHT22;3902;49.474;8.616;2023-03-01T10:33:17;7.30;90.30
7720;DHT22;3902;49.474;8.616;2023-03-01T10:35:45;7.40;90.20
7720;DHT22;3902;49.474;8.616;2023-03-01T10:38:14;7.50;90.30
7720;DHT22;3902;49.474;8.616;2023-03-01T10:40:59;7.60;88.90
7720;DHT22;3902;49.474;8.616;2023-03-01T10:43:31;7.70;89.70
7720;DHT22;3902;49.474;8.616;2023-03-01T10:45:57;7.80;88.80
7720;DHT22;3902;49.474;8.616;2023-03-01T10:48:25;7.90;89.80
7720;DHT22;3902;49.474;8.616;2023-03-01T10:56:05;8.40;90.00
7720;DHT22;3902;49.474;8.616;2023-03-01T10:58:32;8.40;86.90
7720;DHT22;3902;49.474;8.616;2023-03-01T11:01:24;8.40;86.90
7720;DHT22;3902;49.474;8.616;2023-03-01T11:06:37;8.70;87.40
7720;DHT22;3902;49.474;8.616;2023-03-01T11:11:40;9.20;86.80
7720;DHT22;3902;49.474;8.616;2023-03-01T11:14:24;9.70;86.10
7720;DHT22;3902;49.474;8.616;2023-03-01T11:17:13;10.50;83.70
7720;DHT22;3902;49.474;8.616;2023-03-01T11:19:40;11.60;82.40
7720;DHT22;3902;49.474;8.616;2023-03-01T11:22:16;12.60;79.20
7720;DHT22;3902;49.474;8.616;2023-03-01T11:24:49;13.70;78.50
7720;DHT22;3902;49.474;8.616;2023-03-01T11:27:29;14.90;73.90
7720;DHT22;3902;49.474;8.616;2023-03-01T11:30:02;15.80;71.90
7720;DHT22;3902;49.474;8.616;2023-03-01T11:32:35;16.70;69.20
7720;DHT22;3902;49.474;8.616;2023-03-01T11:35:17;17.60;66.40
7720;DHT22;3902;49.474;8.616;2023-03-01T11:43:16;19.80;62.00
7720;DHT22;3902;49.474;8.616;2023-03-01T11:51:11;21.40;56.60
7720;DHT22;3902;49.474;8.616;2023-03-01T11:56:35;22.10;54.80
7720;DHT22;3902;49.474;8.616;2023-03-01T11:59:11;22.30;51.70
7720;DHT22;3902;49.474;8.616;2023-03-01T12:05:12;22.40;51.30
7720;DHT22;3902;49.474;8.616;2023-03-01T12:08:13;23.00;52.10
7720;DHT22;3902;49.474;8.616;2023-03-01T12:14:00;23.70;50.30
7720;DHT22;3902;49.474;8.616;2023-03-01T12:22:32;24.20;47.00
7720;DHT22;3902;49.474;8.616;2023-03-01T12:33:41;24.90;47.00
7720;DHT22;3902;49.474;8.616;2023-03-01T12:38:50;25.10;45.90
7720;DHT22;3902;49.474;8.616;2023-03-01T12:50:20;26.00;44.60
7720;DHT22;3902;49.474;8.616;2023-03-01T12:52:56;26.30;43.10
7720;DHT22;3902;49.474;8.616;2023-03-01T12:55:40;26.20;43.30
7720;DHT22;3902;49.474;8.616;2023-03-01T13:06:44;26.70;42.70
7720;DHT22;3902;49.474;8.616;2023-03-01T13:10:03;27.00;42.10
7720;DHT22;3902;49.474;8.616;2023-03-01T13:17:47;27.20;40.80
7720;DHT22;3902;49.474;8.616;2023-03-01T13:20:15;27.40;40.90
7720;DHT22;3902;49.474;8.616;2023-03-01T13:22:41;27.40;40.40
7720;DHT22;3902;49.474;8.616;2023-03-01T13:25:18;27.50;40.20
7720;DHT22;3902;49.474;8.616;2023-03-01T13:27:46;27.60;40.20
7720;DHT22;3902;49.474;8.616;2023-03-01T13:35:59;27.60;39.80
7720;DHT22;3902;49.474;8.616;2023-03-01T13:41:10;27.60;39.50
7720;DHT22;3902;49.474;8.616;2023-03-01T13:43:37;27.50;40.10
7720;DHT22;3902;49.474;8.616;2023-03-01T13:48:45;27.60;39.40
7720;DHT22;3902;49.474;8.616;2023-03-01T13:51:12;27.50;38.60
7720;DHT22;3902;49.474;8.616;2023-03-01T13:53:46;27.20;38.90
7720;DHT22;3902;49.474;8.616;2023-03-01T13:56:16;27.20;39.30
7720;DHT22;3902;49.474;8.616;2023-03-01T13:58:59;27.20;39.90
7720;DHT22;3902;49.474;8.616;2023-03-01T14:01:32;27.20;39.30
7720;DHT22;3902;49.474;8.616;2023-03-01T14:03:59;27.00;39.60
7720;DHT22;3902;49.474;8.616;2023-03-01T14:06:30;27.10;39.30
7720;DHT22;3902;49.474;8.616;2023-03-01T14:09:24;26.90;39.30
7720;DHT22;3902;49.474;8.616;2023-03-01T14:17:49;26.60;39.60
7720;DHT22;3902;49.474;8.616;2023-03-01T14:20:20;26.60;39.20
7720;DHT22;3902;49.474;8.616;2023-03-01T14:22:49;26.50;39.80
7720;DHT22;3902;49.474;8.616;2023-03-01T14:25:32;26.40;38.90
7720;DHT22;3902;49.474;8.616;2023-03-01T14:30:47;26.20;40.20
7720;DHT22;3902;49.474;8.616;2023-03-01T14:33:30;26.20;39.90
7720;DHT22;3902;49.474;8.616;2023-03-01T14:41:14;26.40;40.10
7720;DHT22;3902;49.474;8.616;2023-03-01T14:43:50;26.40;40.10
7720;DHT22;3902;49.474;8.616;2023-03-01T14:46:23;26.40;39.90
7720;DHT22;3902;49.474;8.616;2023-03-01T14:48:56;26.30;40.10
7720;DHT22;3902;49.474;8.616;2023-03-01T14:51:23;26.30;40.10
7720;DHT22;3902;49.474;8.616;2023-03-01T14:53:50;26.10;39.80
7720;DHT22;3902;49.474;8.616;2023-03-01T14:56:17;25.90;40.90
7720;DHT22;3902;49.474;8.616;2023-03-01T14:58:45;25.70;39.80
7720;DHT22;3902;49.474;8.616;2023-03-01T15:01:16;25.60;40.00
7720;DHT22;3902;49.474;8.616;2023-03-01T15:03:47;25.50;40.60
7720;DHT22;3902;49.474;8.616;2023-03-01T15:06:22;25.40;40.00
7720;DHT22;3902;49.474;8.616;2023-03-01T15:08:51;25.30;40.10
7720;DHT22;3902;49.474;8.616;2023-03-01T15:11:24;25.10;39.90
7720;DHT22;3902;49.474;8.616;2023-03-01T15:13:53;24.90;41.00
7720;DHT22;3902;49.474;8.616;2023-03-01T15:16:29;24.60;40.40
7720;DHT22;3902;49.474;8.616;2023-03-01T15:18:57;24.30;40.70
7720;DHT22;3902;49.474;8.616;2023-03-01T15:26:52;23.70;41.20
7720;DHT22;3902;49.474;8.616;2023-03-01T15:29:25;23.20;41.00
7720;DHT22;3902;49.474;8.616;2023-03-01T15:32:03;22.80;43.40
7720;DHT22;3902;49.474;8.616;2023-03-01T15:34:34;22.20;41.70
7720;DHT22;3902;49.474;8.616;2023-03-01T15:37:03;21.90;42.90
7720;DHT22;3902;49.474;8.616;2023-03-01T15:39:39;21.40;43.40
7720;DHT22;3902;49.474;8.616;2023-03-01T15:42:13;20.90;43.40
7720;DHT22;3902;49.474;8.616;2023-03-01T15:48:13;19.70;44.70
7720;DHT22;3902;49.474;8.616;2023-03-01T15:50:40;19.30;45.70
7720;DHT22;3902;49.474;8.616;2023-03-01T15:53:10;18.90;46.30
7720;DHT22;3902;49.474;8.616;2023-03-01T15:55:36;18.60;46.40
7720;DHT22;3902;49.474;8.616;2023-03-01T15:58:20;18.20;46.60
7720;DHT22;3902;49.474;8.616;2023-03-01T16:00:47;17.80;48.10
7720;DHT22;3902;49.474;8.616;2023-03-01T16:03:14;17.40;48.60
7720;DHT22;3902;49.474;8.616;2023-03-01T16:05:47;17.20;48.50
7720;DHT22;3902;49.474;8.616;2023-03-01T16:08:12;17.00;48.80
7720;DHT22;3902;49.474;8.616;2023-03-01T16:10:39;16.80;49.20
7720;DHT22;3902;49.474;8.616;2023-03-01T16:13:05;16.50;49.40
7720;DHT22;3902;49.474;8.616;2023-03-01T16:15:32;16.30;49.90
7720;DHT22;3902;49.474;8.616;2023-03-01T16:18:01;16.10;50.70
7720;DHT22;3902;49.474;8.616;2023-03-01T16:20:29;15.80;50.50
7720;DHT22;3902;49.474;8.616;2023-03-01T16:23:01;15.50;51.40
7720;DHT22;3902;49.474;8.616;2023-03-01T16:25:27;15.50;52.10
7720;DHT22;3902;49.474;8.616;2023-03-01T16:27:52;15.20;52.00
7720;DHT22;3902;49.474;8.616;2023-03-01T16:30:20;15.00;52.80
7720;DHT22;3902;49.474;8.616;2023-03-01T16:32:48;14.80;52.70
7720;DHT22;3902;49.474;8.616;2023-03-01T16:35:16;14.60;52.90
7720;DHT22;3902;49.474;8.616;2023-03-01T16:37:42;14.40;53.10
7720;DHT22;3902;49.474;8.616;2023-03-01T16:40:17;14.40;52.90
7720;DHT22;3902;49.474;8.616;2023-03-01T16:42:43;14.30;53.00
7720;DHT22;3902;49.474;8.616;2023-03-01T16:45:09;14.00;53.70
7720;DHT22;3902;49.474;8.616;2023-03-01T16:47:35;14.00;54.30
7720;DHT22;3902;49.474;8.616;2023-03-01T16:50:00;13.80;54.50
7720;DHT22;3902;49.474;8.616;2023-03-01T16:52:26;13.70;54.90
7720;DHT22;3902;49.474;8.616;2023-03-01T16:54:52;13.50;55.10
7720;DHT22;3902;49.474;8.616;2023-03-01T16:57:18;13.30;55.50
7720;DHT22;3902;49.474;8.616;2023-03-01T16:59:44;13.20;55.90
7720;DHT22;3902;49.474;8.616;2023-03-01T17:02:11;13.10;55.60
7720;DHT22;3902;49.474;8.616;2023-03-01T17:04:38;13.00;55.50
7720;DHT22;3902;49.474;8.616;2023-03-01T17:07:03;12.90;55.80
7720;DHT22;3902;49.474;8.616;2023-03-01T17:09:29;12.80;56.10
7720;DHT22;3902;49.474;8.616;2023-03-01T17:11:55;12.80;55.80
7720;DHT22;3902;49.474;8.616;2023-03-01T17:14:20;12.60;56.20
7720;DHT22;3902;49.474;8.616;2023-03-01T17:16:46;12.50;56.70
7720;DHT22;3902;49.474;8.616;2023-03-01T17:19:11;12.40;57.20
7720;DHT22;3902;49.474;8.616;2023-03-01T17:21:43;12.30;57.40
7720;DHT22;3902;49.474;8.616;2023-03-01T17:24:09;12.10;58.10
7720;DHT22;3902;49.474;8.616;2023-03-01T17:26:35;11.90;58.40
7720;DHT22;3902;49.474;8.616;2023-03-01T17:29:01;11.90;57.90
7720;DHT22;3902;49.474;8.616;2023-03-01T17:31:28;11.80;58.80
7720;DHT22;3902;49.474;8.616;2023-03-01T17:33:53;11.70;58.70
7720;DHT22;3902;49.474;8.616;2023-03-01T17:36:19;11.60;58.80
7720;DHT22;3902;49.474;8.616;2023-03-01T17:38:44;11.50;59.40
7720;DHT22;3902;49.474;8.616;2023-03-01T17:41:11;11.30;59.60
7720;DHT22;3902;49.474;8.616;2023-03-01T17:43:36;11.20;60.10
7720;DHT22;3902;49.474;8.616;2023-03-01T17:46:02;11.10;60.00
7720;DHT22;3902;49.474;8.616;2023-03-01T17:48:28;11.00;60.20
7720;DHT22;3902;49.474;8.616;2023-03-01T17:50:53;10.90;60.50
7720;DHT22;3902;49.474;8.616;2023-03-01T17:53:20;10.90;60.80
7720;DHT22;3902;49.474;8.616;2023-03-01T17:55:46;10.80;61.10
7720;DHT22;3902;49.474;8.616;2023-03-01T17:58:14;10.70;61.30
7720;DHT22;3902;49.474;8.616;2023-03-01T18:00:40;10.60;61.40
7720;DHT22;3902;49.474;8.616;2023-03-01T18:03:07;10.50;61.70
7720;DHT22;3902;49.474;8.616;2023-03-01T18:05:34;10.40;61.80
7720;DHT22;3902;49.474;8.616;2023-03-01T18:08:00;10.30;62.20
7720;DHT22;3902;49.474;8.616;2023-03-01T18:10:26;10.30;62.30
7720;DHT22;3902;49.474;8.616;2023-03-01T18:12:52;10.30;62.50
7720;DHT22;3902;49.474;8.616;2023-03-01T18:15:17;10.20;62.70
7720;DHT22;3902;49.474;8.616;2023-03-01T18:17:43;10.10;62.70
7720;DHT22;3902;49.474;8.616;2023-03-01T18:20:09;10.10;63.30
7720;DHT22;3902;49.474;8.616;2023-03-01T18:22:35;10.00;63.40